153-й AP3

Карта отелей и гостиниц, располагающихся рядом с аэропортом 153-й AP3 :

153-й AP3
Артем
Приморский край 43° 23' 57.264" N, 132° 12' 16.596" E
153-й AP3
Артем
Приморский край 43° 23' 57.264" N, 132° 12' 16.596" E
Код аэродрома ИКАО
HHC4
Код аэродрома RU
ХХЦ4
Координаты
N43.39924° E132.20461°
Превышение над уровнем моря
21
Основная полоса
10/28
Курс магнитный
097,8/277,8
Длина основной ВПП
44
Ширина основной ВПП
44
Покрытие основной ВПП
Твёрдое
Освещение ВПП
Нет
Тип: 
Вертодром
Класс аэродрома: 
Принадлежность: 
ЭА
Статус: 
Действующий
Сайт: 
E-mail аэродрома: 
Страна: 
Россия
Регион: 
Приморский край
Город: 
Артем
Дополнительная информация: 
Владелец ПП: нет данных. Имеет круглую форму. Маркирована не нормативно.

Найти трансфер

С помощью этой формы Вы можете найти трансфер из аэропорта 153-й AP3 в город, аэропорт или вокзал:

Карта места

Javascript is required to view this map.

Погода в аэропортах:

Авиационная погода в Ставрополе

Регион: 
Погода METAR: 
URMT 131200Z 04003MPS 9999 -SHRA SCT020CB 10/08 Q1021 R07/190060 NOSIG RMK QFE726
Время наблюдения
2021-04-13T12:00:00Z
Температура C
10.0
Точка росы
8.0
Направление ветра
40
Скорость ветра (узлы)
6
Метео видимость
6.21
Явления погоды
-SHRA
Условия полета
VFR
Аэропорт подробнее: 

Авиационная погода в Тбилиси

Регион: 
Погода METAR: 
UGTB 131200Z 20005KT 6000 -TSRA BR FEW008 BKN032CB OVC036 11/10 Q1019 R13R/290054 NOSIG
Время наблюдения
2021-04-13T12:00:00Z
Температура C
11.0
Точка росы
10.0
Направление ветра
200
Скорость ветра (узлы)
5
Метео видимость
3.73
Явления погоды
-TSRA BR
Условия полета
MVFR

Авиационная погода в Хомутово

Регион: 
Погода METAR: 
UHSS 131200Z 22003MPS 3600 -SHRA BR SCT006 BKN021CB 05/04 Q0995 R19/250255 NOSIG RMK MT OBSC QFE745/0993
Время наблюдения
2021-04-13T12:00:00Z
Температура C
5.0
Точка росы
4.0
Направление ветра
220
Скорость ветра (узлы)
6
Метео видимость
2.24
Явления погоды
-SHRA BR
Условия полета
IFR
Аэропорт подробнее: 

Авиационная погода в Иркутске

Регион: 
Погода METAR: 
UIII 131200Z 02008MPS 9000 -SHRA OVC009CB 03/02 Q1014 R30/60D NOSIG RMK QBB270 QFE716/0955
Время наблюдения
2021-04-13T12:00:00Z
Температура C
3.0
Точка росы
2.0
Направление ветра
20
Скорость ветра (узлы)
16
Метео видимость
5.59
Явления погоды
-SHRA
Условия полета
IFR
Аэропорт подробнее: